Time;durP1;ratioP1;P1;durP2;ratioP2;P2;SDS_P1;SDS_P2;PMS_P1;PMS_P2;Temp;Humidity;BMP_temperature;BMP_pressure;BME280_temperature;BME280_humidity;BME280_pressure;Samples;Min_cycle;Max_cycle;Signal;HPM_P1;HPM_P2
2024/03/21 00:01:01;;;;;;;21.35;8.25;;;;;;;4.23;100.00;100760.56;1746298;82;21018;-66
2024/03/21 00:03:32;;;;;;;17.42;7.70;;;;;;;4.22;100.00;100761.56;1746619;82;21021;-67
2024/03/21 00:06:00;;;;;;;12.47;7.62;;;;;;;4.20;100.00;100764.92;1746412;82;21137;-68
2024/03/21 00:08:28;;;;;;;13.30;7.42;;;;;;;4.22;100.00;100764.28;1746572;82;21473;-68
2024/03/21 00:10:57;;;;;;;15.65;8.30;;;;;;;4.17;100.00;100765.23;1746332;82;21011;-68
2024/03/21 00:13:26;;;;;;;17.52;8.38;;;;;;;4.14;100.00;100752.31;1746386;82;21244;-67
2024/03/21 00:15:54;;;;;;;15.25;7.42;;;;;;;4.16;100.00;100760.30;1746674;82;21003;-68
2024/03/21 00:18:23;;;;;;;16.07;8.10;;;;;;;4.16;100.00;100767.58;1746563;82;21066;-67
2024/03/21 00:20:52;;;;;;;18.48;8.05;;;;;;;4.13;100.00;100766.88;1741466;82;20971;-68
2024/03/21 00:23:21;;;;;;;16.57;7.70;;;;;;;4.10;100.00;100765.81;1746733;82;21026;-68
2024/03/21 00:25:49;;;;;;;15.85;8.23;;;;;;;4.08;100.00;100755.61;1746623;82;21045;-68
2024/03/21 00:28:18;;;;;;;15.40;7.87;;;;;;;4.07;100.00;100757.12;1746582;82;21069;-67
2024/03/21 00:30:54;;;;;;;17.82;8.38;;;;;;;4.07;100.00;100753.91;1740766;82;21038;-67
2024/03/21 00:33:17;;;;;;;15.80;7.62;;;;;;;4.09;100.00;100755.97;1745703;82;21161;-68
2024/03/21 00:35:46;;;;;;;20.65;8.15;;;;;;;4.11;100.00;100751.25;1746369;82;21050;-67
2024/03/21 00:38:15;;;;;;;19.15;8.10;;;;;;;4.12;100.00;100752.11;1746584;82;21619;-68
2024/03/21 00:40:43;;;;;;;14.95;7.70;;;;;;;4.12;100.00;100749.40;1746729;82;20987;-68
2024/03/21 00:43:12;;;;;;;16.12;7.47;;;;;;;4.12;100.00;100754.31;1723740;82;21041;-67
2024/03/21 00:45:40;;;;;;;14.68;7.75;;;;;;;4.13;100.00;100754.67;1746350;82;20998;-67
2024/03/21 00:48:09;;;;;;;15.10;6.90;;;;;;;4.15;100.00;100754.52;1746656;82;20955;-67
2024/03/21 00:50:37;;;;;;;15.32;7.62;;;;;;;4.14;100.00;100754.17;1746457;82;20991;-68
2024/03/21 00:53:06;;;;;;;17.52;7.28;;;;;;;4.13;100.00;100757.38;1746384;82;21054;-68
2024/03/21 00:55:34;;;;;;;18.17;7.67;;;;;;;4.13;100.00;100751.96;1746580;82;21046;-66
2024/03/21 00:58:03;;;;;;;16.67;8.25;;;;;;;4.12;100.00;100752.11;1746597;82;20987;-68
2024/03/21 01:00:32;;;;;;;18.82;7.85;;;;;;;4.09;100.00;100749.69;1746384;82;21053;-67
2024/03/21 01:03:02;;;;;;;14.63;7.33;;;;;;;4.08;100.00;100745.27;1746296;82;21485;-67
2024/03/21 01:05:34;;;;;;;15.38;7.08;;;;;;;4.08;100.00;100746.63;1746532;82;20974;-66
2024/03/21 01:08:04;;;;;;;18.95;7.08;;;;;;;4.07;100.00;100747.12;1745852;82;21077;-67
2024/03/21 01:10:32;;;;;;;17.37;7.35;;;;;;;4.06;100.00;100752.70;1746345;82;21010;-67
2024/03/21 01:13:00;;;;;;;16.05;7.45;;;;;;;4.04;100.00;100748.78;1746251;82;21454;-68
2024/03/21 01:15:31;;;;;;;16.60;7.28;;;;;;;4.01;100.00;100750.42;1746484;82;20970;-67
2024/03/21 01:18:03;;;;;;;16.87;7.35;;;;;;;3.98;100.00;100748.52;1745711;82;21430;-67
2024/03/21 01:20:30;;;;;;;20.92;7.97;;;;;;;3.96;100.00;100745.95;1746350;82;21476;-67
2024/03/21 01:22:59;;;;;;;21.62;7.87;;;;;;;3.94;100.00;100752.52;1746288;82;21018;-67
2024/03/21 01:25:28;;;;;;;16.07;7.17;;;;;;;3.93;100.00;100742.67;1745505;82;20998;-68
2024/03/21 01:27:58;;;;;;;13.83;7.50;;;;;;;3.89;100.00;100743.44;1746402;82;21078;-68
2024/03/21 01:30:28;;;;;;;15.98;7.10;;;;;;;3.84;100.00;100747.08;1746435;82;21525;-68
2024/03/21 01:32:57;;;;;;;13.60;6.40;;;;;;;3.82;100.00;100749.94;1746474;82;21034;-69
2024/03/21 01:35:26;;;;;;;14.55;6.72;;;;;;;3.83;100.00;100749.44;1746321;82;21054;-70
2024/03/21 01:37:55;;;;;;;13.03;6.70;;;;;;;3.81;100.00;100745.52;1746416;82;21034;-69
2024/03/21 01:40:24;;;;;;;11.43;6.20;;;;;;;3.81;100.00;100747.38;1746369;82;20995;-67
2024/03/21 01:42:52;;;;;;;16.67;7.47;;;;;;;3.81;100.00;100745.52;1746341;82;21014;-68
2024/03/21 01:45:21;;;;;;;16.00;7.45;;;;;;;3.81;100.00;100752.80;1746399;82;21450;-68
2024/03/21 01:47:49;;;;;;;15.90;7.33;;;;;;;3.80;100.00;100745.17;1746400;82;20979;-68
2024/03/21 01:50:18;;;;;;;15.50;7.78;;;;;;;3.79;100.00;100750.73;1746531;82;20998;-68
2024/03/21 01:52:47;;;;;;;15.05;7.12;;;;;;;3.78;100.00;100751.23;1746411;82;20994;-68
2024/03/21 01:55:15;;;;;;;15.55;7.75;;;;;;;3.77;100.00;100754.95;1746435;82;21003;-68
2024/03/21 01:57:43;;;;;;;14.63;7.45;;;;;;;3.75;100.00;100756.09;1745330;82;21022;-68
2024/03/21 02:00:14;;;;;;;13.50;7.67;;;;;;;3.73;100.00;100749.45;1723618;82;21010;-69
2024/03/21 02:02:43;;;;;;;16.45;8.00;;;;;;;3.73;100.00;100756.23;1741497;82;20975;-69
2024/03/21 02:05:11;;;;;;;18.05;7.08;;;;;;;3.72;100.00;100752.31;1746314;82;21010;-68
2024/03/21 02:07:40;;;;;;;17.30;8.03;;;;;;;3.69;100.00;100757.52;1746269;82;21002;-69
2024/03/21 02:10:10;;;;;;;23.85;10.23;;;;;;;3.71;100.00;100754.67;1746388;82;21006;-68
2024/03/21 02:12:44;;;;;;;17.00;8.03;;;;;;;3.71;100.00;100750.61;1739978;82;21006;-67
2024/03/21 02:15:12;;;;;;;15.60;7.67;;;;;;;3.73;100.00;100751.31;1746418;82;21051;-67
2024/03/21 02:17:41;;;;;;;19.23;8.08;;;;;;;3.71;100.00;100753.31;1746541;82;20994;-68
2024/03/21 02:20:12;;;;;;;16.02;8.13;;;;;;;3.70;100.00;100755.17;1746329;82;21019;-68
2024/03/21 02:22:41;;;;;;;17.00;7.40;;;;;;;3.68;100.00;100754.96;1746420;82;21018;-69
2024/03/21 02:25:11;;;;;;;16.32;7.00;;;;;;;3.66;100.00;100758.31;1746486;82;21007;-67
2024/03/21 02:27:40;;;;;;;14.73;7.08;;;;;;;3.65;100.00;100760.67;1746576;82;20979;-68
2024/03/21 02:30:10;;;;;;;16.90;7.95;;;;;;;3.58;100.00;100754.97;1746337;82;21066;-68
2024/03/21 02:32:39;;;;;;;15.75;7.42;;;;;;;3.57;100.00;100757.83;1746359;82;21018;-67
2024/03/21 02:35:09;;;;;;;15.15;7.60;;;;;;;3.56;100.00;100760.17;1746491;82;21034;-68
2024/03/21 02:37:37;;;;;;;13.05;6.87;;;;;;;3.55;100.00;100759.83;1746343;82;21520;-67
2024/03/21 02:40:09;;;;;;;14.60;7.37;;;;;;;3.52;100.00;100758.75;1746348;82;21038;-67
2024/03/21 02:42:37;;;;;;;17.10;7.20;;;;;;;3.48;100.00;100757.69;1723564;82;21619;-67
2024/03/21 02:45:07;;;;;;;19.15;7.75;;;;;;;3.47;100.00;100755.98;1746337;82;21019;-67
2024/03/21 02:47:35;;;;;;;14.60;7.58;;;;;;;3.47;100.00;100757.33;1746495;82;21030;-67
2024/03/21 02:50:05;;;;;;;17.40;6.90;;;;;;;3.44;100.00;100756.27;1746307;82;21506;-68
2024/03/21 02:52:34;;;;;;;15.03;7.22;;;;;;;3.42;100.00;100759.62;1746558;82;21022;-67
2024/03/21 02:55:03;;;;;;;16.73;7.00;;;;;;;3.41;100.00;100763.32;1746404;82;21053;-67
2024/03/21 02:57:33;;;;;;;15.08;7.45;;;;;;;3.42;100.00;100769.09;1746283;82;21454;-68
2024/03/21 03:00:01;;;;;;;16.77;7.15;;;;;;;3.39;100.00;100761.75;1746337;82;21484;-67
2024/03/21 03:02:30;;;;;;;14.25;7.08;;;;;;;3.37;100.00;100769.17;1746359;82;21019;-67
2024/03/21 03:04:58;;;;;;;13.98;7.30;;;;;;;3.37;100.00;100766.45;1746488;82;21038;-68
2024/03/21 03:07:26;;;;;;;15.25;6.58;;;;;;;3.36;100.00;100775.58;1746399;82;21022;-67
2024/03/21 03:09:55;;;;;;;14.13;7.22;;;;;;;3.34;100.00;100774.38;1746538;82;21022;-67
2024/03/21 03:12:23;;;;;;;18.20;6.72;;;;;;;3.32;100.00;100770.09;1736611;82;20967;-68
2024/03/21 03:14:52;;;;;;;15.25;6.75;;;;;;;3.33;100.00;100771.80;1723186;82;21114;-67
2024/03/21 03:17:21;;;;;;;15.08;6.45;;;;;;;3.33;100.00;100779.43;1746375;82;20982;-67
2024/03/21 03:19:49;;;;;;;13.68;6.80;;;;;;;3.31;100.00;100780.08;1746335;82;21007;-67
2024/03/21 03:22:17;;;;;;;14.33;6.72;;;;;;;3.31;100.00;100783.28;1746296;82;21537;-68
2024/03/21 03:24:46;;;;;;;12.45;6.40;;;;;;;3.31;100.00;100789.55;1723604;82;21034;-67
2024/03/21 03:27:14;;;;;;;11.78;6.08;;;;;;;3.32;100.00;100793.97;1746536;82;20991;-67
2024/03/21 03:29:43;;;;;;;16.42;6.95;;;;;;;3.32;100.00;100791.76;1744963;82;21026;-68
2024/03/21 03:32:12;;;;;;;15.83;6.60;;;;;;;3.33;100.00;100791.62;1746343;82;21022;-67
2024/03/21 03:37:27;;;;;;;12.70;7.07;;;;;;;3.34;100.00;100795.19;1746520;82;21077;-67
2024/03/21 03:39:55;;;;;;;14.38;6.70;;;;;;;3.36;100.00;100800.81;1746488;82;21010;-68
2024/03/21 03:42:24;;;;;;;14.68;6.83;;;;;;;3.36;100.00;100799.46;1746546;82;20987;-68
2024/03/21 03:44:52;;;;;;;13.68;6.70;;;;;;;3.36;100.00;100802.66;1746447;82;21082;-68
2024/03/21 03:47:22;;;;;;;14.33;6.45;;;;;;;3.35;100.00;100807.72;1746423;82;21042;-68
2024/03/21 03:49:50;;;;;;;13.32;6.85;;;;;;;3.34;100.00;100808.22;1746362;82;20966;-68
2024/03/21 03:52:19;;;;;;;20.32;7.45;;;;;;;3.31;100.00;100807.16;1746356;82;21591;-68
2024/03/21 03:54:47;;;;;;;16.57;7.75;;;;;;;3.31;100.00;100815.77;1746240;82;21021;-69
2024/03/21 03:57:16;;;;;;;17.32;7.45;;;;;;;3.29;100.00;100819.98;1746416;82;21038;-68
2024/03/21 03:59:44;;;;;;;16.15;7.87;;;;;;;3.26;100.00;100823.47;1746488;82;21102;-68
2024/03/21 04:02:12;;;;;;;15.25;7.92;;;;;;;3.24;100.00;100817.30;1746548;82;21065;-68
2024/03/21 04:04:41;;;;;;;20.62;10.63;;;;;;;3.24;100.00;100820.87;1746389;82;20995;-68
2024/03/21 04:07:09;;;;;;;23.90;13.30;;;;;;;3.23;100.00;100817.80;1746477;82;21083;-68
2024/03/21 04:09:38;;;;;;;27.98;14.47;;;;;;;3.22;100.00;100828.27;1723915;82;21109;-68
2024/03/21 04:12:07;;;;;;;25.12;13.62;;;;;;;3.23;100.00;100821.01;1746259;82;20951;-68
2024/03/21 04:14:36;;;;;;;23.50;12.98;;;;;;;3.21;100.00;100825.70;1746302;82;21014;-68
2024/03/21 04:17:05;;;;;;;23.92;12.35;;;;;;;3.22;100.00;100821.50;1742055;82;21003;-68
2024/03/21 04:19:33;;;;;;;24.63;11.90;;;;;;;3.19;100.00;100823.14;1746489;82;21050;-67
2024/03/21 04:22:02;;;;;;;25.27;12.07;;;;;;;3.18;100.00;100826.34;1746531;82;20991;-67
2024/03/21 04:24:30;;;;;;;21.40;10.38;;;;;;;3.19;100.00;100823.14;1746248;82;20998;-67
2024/03/21 04:26:59;;;;;;;18.35;10.03;;;;;;;3.16;100.00;100822.92;1746343;82;21129;-67
2024/03/21 04:29:27;;;;;;;20.08;9.40;;;;;;;3.17;100.00;100828.69;1746315;82;21034;-67
2024/03/21 04:31:56;;;;;;;21.30;10.35;;;;;;;3.18;100.00;100828.20;1746497;82;20992;-68
2024/03/21 04:34:29;;;;;;;18.20;8.93;;;;;;;3.17;100.00;100834.61;1746670;82;21039;-68
2024/03/21 04:36:55;;;;;;;17.45;8.30;;;;;;;3.15;100.00;100829.33;1745952;82;21034;-67
2024/03/21 04:39:23;;;;;;;19.30;8.33;;;;;;;3.14;100.00;100837.09;1746524;82;20991;-67
2024/03/21 04:41:52;;;;;;;18.87;8.68;;;;;;;3.15;100.00;100837.45;1723413;82;21447;-68
2024/03/21 04:44:21;;;;;;;17.32;8.95;;;;;;;3.14;100.00;100833.53;1746285;82;21153;-67
2024/03/21 04:46:49;;;;;;;19.48;8.80;;;;;;;3.15;100.00;100844.22;1746291;82;21030;-67
2024/03/21 04:49:18;;;;;;;19.37;8.03;;;;;;;3.18;100.00;100840.37;1746527;82;21029;-68
2024/03/21 04:51:46;;;;;;;16.15;8.20;;;;;;;3.18;100.00;100840.37;1746563;82;20979;-67
2024/03/21 04:54:17;;;;;;;14.33;7.72;;;;;;;3.18;100.00;100846.66;1746368;82;20999;-67
2024/03/21 04:56:48;;;;;;;15.13;7.30;;;;;;;3.17;100.00;100848.14;1746567;82;20998;-67
2024/03/21 04:59:16;;;;;;;17.35;7.25;;;;;;;3.16;100.00;100847.29;1745266;82;20998;-67
2024/03/21 05:01:44;;;;;;;15.40;8.58;;;;;;;3.15;100.00;100846.08;1746356;82;21448;-67
2024/03/21 05:04:13;;;;;;;15.93;8.28;;;;;;;3.16;100.00;100845.08;1745519;82;20994;-69
2024/03/21 05:06:41;;;;;;;15.43;8.43;;;;;;;3.18;100.00;100843.09;1746582;82;21232;-67
2024/03/21 05:09:10;;;;;;;18.02;7.97;;;;;;;3.19;100.00;100851.57;1723786;82;21017;-67
2024/03/21 05:11:39;;;;;;;16.05;7.60;;;;;;;3.24;100.00;100849.30;1746548;82;20994;-65
2024/03/21 05:14:08;;;;;;;15.48;7.05;;;;;;;3.31;100.00;100861.31;1746651;82;21253;-69
2024/03/21 05:16:36;;;;;;;18.27;8.23;;;;;;;3.34;100.00;100853.41;1746292;82;20978;-68
2024/03/21 05:19:04;;;;;;;15.15;7.15;;;;;;;3.34;100.00;100852.91;1746309;82;21494;-67
2024/03/21 05:21:33;;;;;;;12.37;7.45;;;;;;;3.35;100.00;100855.98;1746583;82;21002;-67
2024/03/21 05:24:01;;;;;;;16.27;7.20;;;;;;;3.40;100.00;100858.27;1723916;82;20986;-67
2024/03/21 05:26:31;;;;;;;15.45;7.35;;;;;;;3.43;100.00;100854.78;1746549;82;21026;-68
2024/03/21 05:29:00;;;;;;;13.72;7.47;;;;;;;3.48;100.00;100851.14;1746288;82;21034;-68
2024/03/21 05:31:28;;;;;;;13.00;7.80;;;;;;;3.50;100.00;100860.48;1746397;82;21069;-68
2024/03/21 05:33:58;;;;;;;16.37;7.10;;;;;;;3.54;100.00;100859.70;1746562;82;21052;-67
2024/03/21 05:36:28;;;;;;;21.52;7.42;;;;;;;3.59;100.00;100864.20;1746339;82;21090;-69
2024/03/21 05:38:56;;;;;;;14.80;7.62;;;;;;;3.64;100.00;100857.86;1746524;82;21002;-66
2024/03/21 05:41:25;;;;;;;16.90;7.60;;;;;;;3.66;100.00;100863.50;1746527;82;20970;-68
2024/03/21 05:43:54;;;;;;;13.50;7.40;;;;;;;3.69;100.00;100863.70;1746562;82;21057;-68
2024/03/21 05:46:26;;;;;;;15.83;7.55;;;;;;;3.73;100.00;100866.48;1746459;82;21008;-67
2024/03/21 05:48:55;;;;;;;14.43;7.35;;;;;;;3.73;100.00;100867.34;1746399;82;20974;-69
2024/03/21 05:51:24;;;;;;;15.90;8.28;;;;;;;3.76;100.00;100871.13;1746538;82;21002;-68
2024/03/21 05:53:52;;;;;;;15.93;8.33;;;;;;;3.79;100.00;100871.34;1746668;82;21012;-67
2024/03/21 05:56:21;;;;;;;13.68;8.03;;;;;;;3.82;100.00;100872.41;1746253;82;20994;-67
2024/03/21 05:58:50;;;;;;;14.20;7.08;;;;;;;3.83;100.00;100874.13;1746347;82;20994;-69
2024/03/21 06:01:23;;;;;;;24.67;13.08;;;;;;;3.89;100.00;100870.84;1746511;82;21475;-68
2024/03/21 06:03:52;;;;;;;21.60;8.98;;;;;;;3.96;100.00;100872.51;1724206;82;21062;-67
2024/03/21 06:06:21;;;;;;;17.10;8.55;;;;;;;4.01;100.00;100872.44;1746339;82;21018;-67
2024/03/21 06:08:50;;;;;;;20.23;9.15;;;;;;;4.05;100.00;100879.28;1745150;82;21026;-68
2024/03/21 06:11:20;;;;;;;15.63;8.58;;;;;;;4.08;100.00;100879.49;1746549;82;21505;-68
2024/03/21 06:13:50;;;;;;;17.75;8.60;;;;;;;4.12;100.00;100884.98;1746407;82;21010;-68
2024/03/21 06:16:20;;;;;;;17.05;9.68;;;;;;;4.14;100.00;100881.63;1745268;82;20979;-68
2024/03/21 06:18:49;;;;;;;14.25;7.67;;;;;;;4.17;100.00;100887.27;1723104;81;21098;-70
2024/03/21 06:21:18;;;;;;;16.23;8.43;;;;;;;4.24;100.00;100889.75;1714795;83;21068;-69
2024/03/21 06:23:46;;;;;;;14.95;7.83;;;;;;;4.24;100.00;100885.68;1693175;84;21091;-67
2024/03/21 06:26:14;;;;;;;17.32;7.67;;;;;;;4.23;100.00;100886.68;1714896;84;21050;-67
2024/03/21 06:28:43;;;;;;;15.32;7.72;;;;;;;4.21;100.00;100892.25;1692285;84;21491;-67
2024/03/21 06:31:11;;;;;;;17.45;7.87;;;;;;;4.20;100.00;100893.25;1693236;84;20992;-67
2024/03/21 06:33:40;;;;;;;17.77;8.83;;;;;;;4.26;100.00;100898.09;1715018;84;21036;-68
2024/03/21 06:36:08;;;;;;;14.10;8.20;;;;;;;4.31;100.00;100906.66;1693313;83;21064;-67
2024/03/21 06:38:38;;;;;;;21.07;13.55;;;;;;;4.37;100.00;100908.78;1714778;83;21059;-67
2024/03/21 06:41:06;;;;;;;16.27;9.78;;;;;;;4.44;100.00;100909.06;1715016;83;21016;-67
2024/03/21 06:43:35;;;;;;;14.87;9.25;;;;;;;4.50;100.00;100898.13;1715106;84;21020;-67
2024/03/21 06:46:04;;;;;;;18.07;9.00;;;;;;;4.57;100.00;100901.49;1715016;84;21056;-68
2024/03/21 06:48:32;;;;;;;17.25;9.68;;;;;;;4.67;100.00;100898.75;1714801;84;21126;-67
2024/03/21 06:51:07;;;;;;;16.25;9.98;;;;;;;4.74;100.00;100897.16;1712132;83;21117;-67
2024/03/21 06:53:37;;;;;;;15.03;8.40;;;;;;;4.73;100.00;100893.59;1714876;84;21481;-67
2024/03/21 06:56:05;;;;;;;19.40;10.32;;;;;;;4.77;100.00;100893.64;1714856;84;21044;-67
2024/03/21 06:58:35;;;;;;;16.25;9.78;;;;;;;4.80;100.00;100892.99;1714779;83;21471;-67
2024/03/21 07:01:04;;;;;;;21.60;11.63;;;;;;;4.80;100.00;100901.99;1714951;84;21505;-67
2024/03/21 07:03:32;;;;;;;19.35;11.12;;;;;;;4.80;100.00;100899.28;1693312;84;21076;-67
2024/03/21 07:06:01;;;;;;;21.48;10.63;;;;;;;4.84;100.00;100895.77;1714966;83;21085;-67
2024/03/21 07:08:30;;;;;;;20.20;11.15;;;;;;;4.88;100.00;100906.68;1714964;84;21028;-67
2024/03/21 07:10:59;;;;;;;16.27;10.78;;;;;;;4.88;100.00;100899.89;1693019;84;21525;-68
2024/03/21 07:13:29;;;;;;;18.15;9.75;;;;;;;4.88;100.00;100904.82;1715063;84;21047;-67
2024/03/21 07:15:59;;;;;;;20.43;10.55;;;;;;;4.88;100.00;100899.39;1682806;85;21048;-66
2024/03/21 07:18:28;;;;;;;19.57;10.35;;;;;;;4.92;100.00;100904.02;1659049;85;21115;-67
2024/03/21 07:20:57;;;;;;;19.05;11.73;;;;;;;4.94;100.00;100900.66;1678255;85;21537;-68
2024/03/21 07:23:27;;;;;;;23.62;12.37;;;;;;;4.98;100.00;100902.06;1678150;85;21119;-67
2024/03/21 07:25:56;;;;;;;19.52;11.30;;;;;;;5.01;100.00;100905.84;1678040;85;21040;-67
2024/03/21 07:28:27;;;;;;;19.00;11.18;;;;;;;5.04;100.00;100905.54;1678320;85;21477;-67
2024/03/21 07:30:56;;;;;;;19.90;10.50;;;;;;;5.07;100.00;100902.52;1678285;85;21020;-67
2024/03/21 07:33:24;;;;;;;18.17;8.98;;;;;;;5.10;100.00;100909.87;1678334;85;21052;-67
2024/03/21 07:35:56;;;;;;;16.42;9.25;;;;;;;5.13;100.00;100908.72;1678132;85;21087;-67
2024/03/21 07:38:25;;;;;;;17.37;9.98;;;;;;;5.15;100.00;100909.92;1678246;85;21068;-67
2024/03/21 07:40:59;;;;;;;18.80;9.95;;;;;;;5.16;100.00;100907.05;1678164;85;21057;-68
2024/03/21 07:43:28;;;;;;;21.48;9.60;;;;;;;5.23;100.00;100912.27;1682978;84;21079;-67
2024/03/21 07:45:56;;;;;;;19.62;8.98;;;;;;;5.27;100.00;100909.60;1678235;85;21044;-67
2024/03/21 07:48:25;;;;;;;17.15;9.50;;;;;;;5.31;100.00;100910.16;1691451;84;21075;-67
2024/03/21 07:50:54;;;;;;;17.67;9.08;;;;;;;5.33;100.00;100907.64;1714628;84;21557;-67
2024/03/21 07:53:23;;;;;;;17.98;9.30;;;;;;;5.37;100.00;100900.89;1714405;83;21448;-67
2024/03/21 07:55:53;;;;;;;17.45;9.40;;;;;;;5.41;100.00;100905.02;1714859;83;21043;-67
2024/03/21 07:58:22;;;;;;;21.57;8.90;;;;;;;5.47;100.00;100902.70;1689798;84;21515;-67
2024/03/21 08:00:50;;;;;;;17.52;9.80;;;;;;;5.57;99.88;100907.06;1692626;83;21515;-68
2024/03/21 08:03:19;;;;;;;22.87;9.60;;;;;;;5.79;99.78;100909.84;1712879;84;21020;-66
2024/03/21 08:05:48;;;;;;;18.80;9.93;;;;;;;6.13;99.69;100909.20;1712779;84;21083;-68
2024/03/21 08:08:17;;;;;;;22.62;10.28;;;;;;;6.53;99.47;100906.84;1712833;84;21039;-65
2024/03/21 08:10:46;;;;;;;23.87;9.93;;;;;;;6.97;99.00;100912.22;1714015;83;21023;-68
2024/03/21 08:13:15;;;;;;;18.20;9.80;;;;;;;7.40;97.74;100912.63;1714755;84;21562;-68
2024/03/21 08:15:44;;;;;;;20.08;9.43;;;;;;;7.82;95.62;100915.84;1714858;84;21059;-67
2024/03/21 08:18:12;;;;;;;17.40;9.35;;;;;;;8.21;94.30;100918.80;1692932;84;21096;-68
2024/03/21 08:20:43;;;;;;;13.75;8.78;;;;;;;8.54;91.15;100911.52;1692952;84;21464;-68
2024/03/21 08:23:15;;;;;;;14.63;9.05;;;;;;;8.86;89.81;100915.56;1693636;84;21031;-67
2024/03/21 08:25:44;;;;;;;14.90;8.95;;;;;;;9.15;88.84;100915.00;1693120;84;21095;-67
2024/03/21 08:28:13;;;;;;;16.15;8.98;;;;;;;9.52;86.49;100908.01;1714874;84;21051;-67
2024/03/21 08:30:48;;;;;;;19.70;9.10;;;;;;;9.82;83.92;100909.07;1714903;83;21070;-67
2024/03/21 08:33:17;;;;;;;23.85;9.85;;;;;;;9.96;82.70;100910.18;1694403;84;21000;-67
2024/03/21 08:35:47;;;;;;;17.17;9.15;;;;;;;10.10;80.71;100908.03;1693424;84;21540;-67
2024/03/21 08:38:16;;;;;;;19.10;9.78;;;;;;;10.10;78.83;100911.61;1715011;84;21096;-67
2024/03/21 08:40:54;;;;;;;17.70;9.83;;;;;;;10.23;78.95;100907.45;1715128;83;21460;-67
2024/03/21 08:43:24;;;;;;;19.85;9.70;;;;;;;10.39;78.35;100911.42;1714875;84;21455;-68
2024/03/21 08:45:53;;;;;;;14.53;8.25;;;;;;;10.48;77.40;100916.68;1705748;84;21012;-67
2024/03/21 08:48:22;;;;;;;17.60;9.95;;;;;;;10.59;76.43;100918.13;1736904;80;21011;-69
2024/03/21 08:50:54;;;;;;;17.45;8.73;;;;;;;10.57;75.15;100922.09;1755802;81;21091;-69
2024/03/21 08:53:36;;;;;;;12.80;8.55;;;;;;;10.59;75.15;100922.23;1736475;81;21075;-69
2024/03/21 08:56:05;;;;;;;19.82;10.03;;;;;;;10.63;74.31;100927.68;1761860;81;21076;-69
2024/03/21 08:58:34;;;;;;;19.23;9.93;;;;;;;10.65;75.06;100918.75;1714121;82;21463;-72
2024/03/21 09:01:03;;;;;;;15.13;8.68;;;;;;;10.65;74.74;100915.16;1725413;83;21545;-67
2024/03/21 09:03:33;;;;;;;17.00;8.00;;;;;;;10.66;77.11;100916.87;1742495;82;21043;-68
2024/03/21 09:06:02;;;;;;;16.27;8.38;;;;;;;10.75;78.80;100912.48;1720648;82;21096;-66
2024/03/21 09:08:34;;;;;;;14.18;8.75;;;;;;;10.86;79.49;100918.03;1740515;82;21083;-71
2024/03/21 09:11:03;;;;;;;16.07;9.83;;;;;;;10.84;77.14;100913.26;1738866;82;21020;-72
2024/03/21 09:13:31;;;;;;;21.07;9.73;;;;;;;10.70;75.21;100910.83;1740333;82;21036;-72
2024/03/21 09:16:00;;;;;;;22.95;9.58;;;;;;;10.52;75.49;100908.94;1738881;82;21103;-71
2024/03/21 09:18:30;;;;;;;23.73;11.15;;;;;;;10.38;75.39;100910.57;1729947;82;21086;-72
2024/03/21 09:21:02;;;;;;;16.02;9.30;;;;;;;10.23;75.20;100908.30;1718443;82;21131;-69
2024/03/21 09:23:29;;;;;;;17.57;9.55;;;;;;;10.10;75.80;100909.39;1755101;81;21055;-72
2024/03/21 09:26:01;;;;;;;22.22;10.53;;;;;;;10.05;76.31;100909.09;1761651;81;21116;-72
2024/03/21 09:28:30;;;;;;;20.75;9.78;;;;;;;9.99;76.51;100914.77;1761723;81;21004;-72
2024/03/21 09:30:59;;;;;;;18.55;9.75;;;;;;;9.95;76.87;100911.21;1761539;80;21083;-72
2024/03/21 09:33:27;;;;;;;18.75;10.00;;;;;;;9.94;77.10;100914.98;1716513;81;21545;-72
2024/03/21 09:35:59;;;;;;;20.57;10.88;;;;;;;9.94;78.06;100906.77;1740495;81;21036;-71
2024/03/21 09:38:27;;;;;;;20.12;9.85;;;;;;;9.98;78.04;100908.11;1740429;81;21286;-71
2024/03/21 09:40:58;;;;;;;22.52;10.03;;;;;;;9.97;77.43;100903.67;1761519;81;21059;-71
2024/03/21 09:43:27;;;;;;;30.20;10.82;;;;;;;10.00;77.85;100893.73;1740439;81;21033;-70
2024/03/21 09:45:56;;;;;;;19.73;10.82;;;;;;;10.03;78.00;100889.25;1761435;81;21106;-71
2024/03/21 09:48:25;;;;;;;17.20;10.55;;;;;;;10.06;77.86;100896.59;1761759;81;21012;-71
2024/03/21 09:50:54;;;;;;;23.40;10.63;;;;;;;10.07;77.35;100891.45;1761588;81;21102;-71
2024/03/21 09:53:23;;;;;;;23.83;10.72;;;;;;;10.06;77.15;100893.00;1761663;81;21032;-71
2024/03/21 09:55:52;;;;;;;27.05;11.12;;;;;;;10.05;77.30;100894.88;1761423;81;21020;-72
2024/03/21 09:58:21;;;;;;;22.85;10.78;;;;;;;10.05;76.99;100885.81;1716654;83;21001;-71
2024/03/21 10:00:51;;;;;;;20.88;10.70;;;;;;;10.05;76.56;100888.55;1716431;83;21044;-71
2024/03/21 10:03:20;;;;;;;19.42;10.32;;;;;;;10.01;75.20;100883.96;1714827;83;21469;-71
2024/03/21 10:05:48;;;;;;;20.23;10.48;;;;;;;10.01;75.63;100888.59;1716473;83;21089;-72
2024/03/21 10:08:17;;;;;;;20.70;11.48;;;;;;;10.00;75.67;100880.03;1716569;83;21013;-71
2024/03/21 10:10:46;;;;;;;23.12;10.60;;;;;;;9.99;75.58;100878.34;1716638;83;21038;-71
2024/03/21 10:13:15;;;;;;;20.15;10.58;;;;;;;10.02;76.00;100878.82;1715526;83;21490;-71
2024/03/21 10:15:43;;;;;;;18.82;10.58;;;;;;;10.07;75.48;100882.38;1716375;83;21009;-72
2024/03/21 10:18:12;;;;;;;18.17;10.08;;;;;;;10.04;74.90;100878.13;1716494;83;21048;-71
2024/03/21 10:20:40;;;;;;;17.42;9.78;;;;;;;10.03;74.57;100876.41;1671447;83;21002;-70
2024/03/21 10:23:16;;;;;;;22.85;10.30;;;;;;;10.05;74.90;100874.34;1716587;83;21072;-70
2024/03/21 10:25:48;;;;;;;24.67;10.23;;;;;;;10.06;72.60;100877.42;1716401;83;21069;-71
2024/03/21 10:28:17;;;;;;;24.35;10.18;;;;;;;10.07;72.57;100877.75;1716500;83;20977;-71
2024/03/21 10:30:45;;;;;;;19.42;9.05;;;;;;;10.07;71.24;100872.80;1716579;83;21017;-70
2024/03/21 10:33:17;;;;;;;21.15;9.55;;;;;;;10.04;69.10;100874.53;1716620;83;21017;-71
2024/03/21 10:35:45;;;;;;;19.35;8.80;;;;;;;10.01;68.83;100877.12;1716327;83;21414;-70
2024/03/21 10:38:17;;;;;;;25.02;8.60;;;;;;;10.03;68.25;100878.30;1716690;83;21061;-71
2024/03/21 10:40:53;;;;;;;17.40;8.60;;;;;;;10.04;66.58;100878.64;1716701;83;21037;-70
2024/03/21 10:43:22;;;;;;;19.25;8.70;;;;;;;9.99;65.10;100868.75;1716609;83;21052;-71
2024/03/21 10:45:51;;;;;;;17.82;7.85;;;;;;;9.96;65.95;100872.70;1716171;83;21460;-72
2024/03/21 10:48:34;;;;;;;21.45;7.83;;;;;;;9.95;64.77;100869.63;1739935;82;20988;-71
2024/03/21 10:51:19;;;;;;;21.90;8.25;;;;;;;9.96;64.23;100867.75;1724617;82;21123;-71
2024/03/21 10:53:59;;;;;;;20.88;8.60;;;;;;;9.98;64.35;100872.00;1745969;82;21130;-72
2024/03/21 10:56:38;;;;;;;19.85;8.30;;;;;;;9.99;63.77;100867.39;1744068;82;21059;-72
2024/03/21 10:59:06;;;;;;;25.95;9.75;;;;;;;10.01;63.84;100870.27;1741914;82;21341;-71
2024/03/21 11:01:38;;;;;;;18.12;8.58;;;;;;;10.02;63.98;100860.17;1738942;82;21019;-70
2024/03/21 11:04:10;;;;;;;17.82;8.30;;;;;;;10.00;64.04;100858.98;1718415;82;21063;-70
2024/03/21 11:06:42;;;;;;;26.37;9.03;;;;;;;9.99;64.43;100863.28;1738708;82;21036;-70
2024/03/21 11:09:12;;;;;;;22.32;8.95;;;;;;;9.97;63.01;100855.25;1719154;82;21480;-70
2024/03/21 11:11:40;;;;;;;19.85;8.38;;;;;;;9.97;63.38;100857.98;1718225;82;21051;-71
2024/03/21 11:14:10;;;;;;;23.77;8.80;;;;;;;9.96;63.12;100851.33;1739082;82;21039;-70
2024/03/21 11:16:40;;;;;;;20.02;8.18;;;;;;;9.95;63.63;100855.09;1738973;82;21542;-71
2024/03/21 11:19:08;;;;;;;22.15;7.35;;;;;;;9.95;64.14;100851.84;1739044;82;21056;-71
2024/03/21 11:21:40;;;;;;;18.45;8.10;;;;;;;9.96;63.54;100853.55;1695079;82;21012;-70
2024/03/21 11:24:13;;;;;;;24.07;8.28;;;;;;;9.99;62.84;100849.59;1738973;82;21056;-71
2024/03/21 11:26:44;;;;;;;19.27;8.05;;;;;;;9.97;62.53;100842.08;1739108;82;21032;-71
2024/03/21 11:29:13;;;;;;;20.95;7.08;;;;;;;9.97;62.17;100841.56;1718454;82;21039;-71